Time;durP1;ratioP1;P1;durP2;ratioP2;P2;SDS_P1;SDS_P2;PMS_P1;PMS_P2;Temp;Humidity;BMP_temperature;BMP_pressure;BME280_temperature;BME280_humidity;BME280_pressure;Samples;Min_cycle;Max_cycle;Signal;HPM_P1;HPM_P2
2022/07/29 00:02:28;;;;;;;8.48;4.00;;;;;;;11.42;100.00;101344.03;5032325;28;20048;-81
2022/07/29 00:04:55;;;;;;;6.95;3.50;;;;;;;11.35;100.00;101341.50;5031781;28;20035;-81
2022/07/29 00:07:22;;;;;;;6.70;3.67;;;;;;;11.36;100.00;101335.34;5001121;28;20052;-82
2022/07/29 00:09:49;;;;;;;5.00;3.60;;;;;;;11.37;100.00;101334.44;5020519;28;20036;-82
2022/07/29 00:12:23;;;;;;;4.75;3.55;;;;;;;11.31;100.00;101331.88;5018928;28;20096;-84
2022/07/29 00:14:55;;;;;;;6.30;3.97;;;;;;;11.32;100.00;101334.47;5025003;28;20698;-83
2022/07/29 00:17:23;;;;;;;7.72;3.42;;;;;;;11.28;100.00;101330.16;5006143;28;20061;-81
2022/07/29 00:19:50;;;;;;;5.25;3.78;;;;;;;11.32;100.00;101330.97;5021628;28;20041;-81
2022/07/29 00:22:17;;;;;;;6.07;4.10;;;;;;;11.22;100.00;101331.09;5019706;28;20478;-81
2022/07/29 00:24:44;;;;;;;5.43;3.42;;;;;;;11.16;100.00;101336.44;5023230;28;20045;-83
2022/07/29 00:27:11;;;;;;;5.85;3.65;;;;;;;11.19;100.00;101335.56;5023424;28;20512;-83
2022/07/29 00:29:37;;;;;;;5.18;3.95;;;;;;;11.14;100.00;101332.94;5003878;28;20544;-83
2022/07/29 00:32:04;;;;;;;4.65;3.13;;;;;;;11.11;100.00;101337.41;5000716;28;20049;-84
2022/07/29 00:37:17;;;;;;;6.25;3.13;;;;;;;11.04;100.00;101341.88;5037708;28;20125;-83
2022/07/29 00:39:43;;;;;;;6.65;3.90;;;;;;;11.07;100.00;101341.84;5004013;28;20469;-82
2022/07/29 00:42:10;;;;;;;5.47;3.50;;;;;;;11.12;100.00;101345.31;5034329;28;20040;-82
2022/07/29 00:44:38;;;;;;;5.93;3.50;;;;;;;11.05;100.00;101345.41;5014206;28;20037;-84
2022/07/29 00:47:05;;;;;;;5.85;4.00;;;;;;;11.02;100.00;101334.88;5029234;28;20406;-82
2022/07/29 00:49:33;;;;;;;7.28;3.63;;;;;;;10.97;100.00;101345.50;5020733;28;20041;-83
2022/07/29 00:52:02;;;;;;;5.22;3.38;;;;;;;10.97;100.00;101345.50;5018804;28;20045;-82
2022/07/29 00:54:30;;;;;;;5.35;3.60;;;;;;;10.96;100.00;101341.09;5027081;28;20080;-81
2022/07/29 00:57:01;;;;;;;5.63;3.88;;;;;;;10.93;100.00;101347.31;5019040;28;20482;-82
2022/07/29 00:59:28;;;;;;;5.60;3.45;;;;;;;10.92;100.00;101339.38;5037148;28;20048;-82
2022/07/29 01:02:03;;;;;;;6.20;3.92;;;;;;;10.94;100.00;101335.84;5018356;28;20049;-83
2022/07/29 01:04:31;;;;;;;6.25;3.40;;;;;;;10.99;100.00;101335.75;5022276;28;20041;-81
2022/07/29 01:06:58;;;;;;;8.93;4.07;;;;;;;10.92;100.00;101328.78;5039901;28;20060;-85
2022/07/29 01:09:26;;;;;;;6.35;3.50;;;;;;;10.89;100.00;101324.41;5005334;28;20051;-83
2022/07/29 01:12:18;;;;;;;5.43;3.58;;;;;;;10.83;100.00;101315.69;5030408;28;20042;-82
2022/07/29 01:14:45;;;;;;;5.05;3.90;;;;;;;10.83;100.00;101320.97;5023171;28;20048;-81
2022/07/29 01:17:19;;;;;;;4.82;3.55;;;;;;;10.79;100.00;101321.91;5026893;28;20041;-82
2022/07/29 01:19:58;;;;;;;6.18;3.92;;;;;;;10.76;100.00;101314.84;4999639;28;20052;-83
2022/07/29 01:22:55;;;;;;;5.22;4.00;;;;;;;10.77;100.00;101314.00;5048743;28;20686;-82
2022/07/29 01:26:07;;;;;;;5.15;3.88;;;;;;;10.78;100.00;101310.47;5036782;28;20686;-83
2022/07/29 01:28:58;;;;;;;5.00;3.47;;;;;;;10.74;100.00;101306.09;5021392;28;20041;-83
2022/07/29 01:31:31;;;;;;;11.80;3.70;;;;;;;10.71;100.00;101306.13;5038484;28;20041;-82
2022/07/29 01:34:04;;;;;;;5.68;3.83;;;;;;;10.70;100.00;101302.59;5024085;28;20059;-80
2022/07/29 01:36:35;;;;;;;6.22;3.72;;;;;;;10.69;100.00;101303.50;4993642;28;20045;-80
2022/07/29 01:39:11;;;;;;;4.88;3.63;;;;;;;10.70;100.00;101301.75;5016446;28;20049;-80
2022/07/29 01:41:50;;;;;;;7.18;3.90;;;;;;;10.66;100.00;101300.00;5026507;28;20040;-81
2022/07/29 01:44:20;;;;;;;5.90;3.90;;;;;;;10.64;100.00;101293.88;5032140;28;20041;-83
2022/07/29 01:46:52;;;;;;;5.88;3.60;;;;;;;10.65;100.00;101299.13;5019851;28;20132;-80
2022/07/29 01:49:27;;;;;;;6.13;4.22;;;;;;;10.61;100.00;101292.13;5003102;28;20120;-81
2022/07/29 01:51:59;;;;;;;5.80;3.67;;;;;;;10.61;100.00;101291.25;5032377;28;20036;-81
2022/07/29 01:54:34;;;;;;;5.93;3.53;;;;;;;10.60;100.00;101285.09;5085022;23;20026;-81
2022/07/29 01:59:54;;;;;;;4.35;3.42;;;;;;;10.51;100.00;101284.31;4954000;28;20066;-81
2022/07/29 02:02:21;;;;;;;6.97;3.53;;;;;;;10.51;100.00;101274.63;4951651;28;20555;-82
2022/07/29 02:04:49;;;;;;;6.38;3.72;;;;;;;10.52;100.00;101267.59;4933857;28;20100;-82
2022/07/29 02:07:19;;;;;;;4.22;3.47;;;;;;;10.49;100.00;101265.81;4931296;28;20052;-82
2022/07/29 02:09:47;;;;;;;15.57;4.25;;;;;;;10.47;100.00;101269.38;4949148;28;20042;-82
2022/07/29 02:12:16;;;;;;;5.82;3.75;;;;;;;10.42;100.00;101259.75;4934234;28;20053;-82
2022/07/29 02:14:51;;;;;;;7.53;4.13;;;;;;;10.45;100.00;101257.97;4949283;28;20058;-82
2022/07/29 02:17:23;;;;;;;4.88;3.70;;;;;;;10.42;100.00;101246.56;4952015;28;20039;-82
2022/07/29 02:19:52;;;;;;;7.07;4.50;;;;;;;10.39;100.00;101249.22;4958053;28;20050;-81
2022/07/29 02:22:19;;;;;;;6.50;4.10;;;;;;;10.48;100.00;101242.94;4947831;28;20049;-82
2022/07/29 02:24:47;;;;;;;5.40;3.35;;;;;;;10.52;100.00;101236.75;4950945;28;20039;-81
2022/07/29 02:27:14;;;;;;;4.25;3.42;;;;;;;10.44;100.00;101235.97;4934426;28;20039;-81
2022/07/29 02:29:44;;;;;;;4.30;3.50;;;;;;;10.45;100.00;101231.56;4921041;28;20043;-81
2022/07/29 02:32:13;;;;;;;6.40;3.97;;;;;;;10.43;100.00;101226.28;4929688;28;20046;-81
2022/07/29 02:34:41;;;;;;;7.18;4.30;;;;;;;10.41;100.00;101222.78;4961427;28;20043;-81
2022/07/29 02:37:10;;;;;;;3.97;3.58;;;;;;;10.39;100.00;101214.88;4937924;28;20046;-81
2022/07/29 02:39:37;;;;;;;5.15;3.33;;;;;;;10.38;100.00;101225.47;4930983;28;20036;-81
2022/07/29 02:42:07;;;;;;;6.15;4.78;;;;;;;10.47;100.00;101224.47;4951023;28;20038;-81
2022/07/29 02:44:34;;;;;;;4.55;4.07;;;;;;;10.44;100.00;101228.03;4951676;28;20042;-81
2022/07/29 02:47:19;;;;;;;6.20;4.32;;;;;;;10.41;100.00;101228.91;4937077;28;20045;-81
2022/07/29 02:49:52;;;;;;;5.28;3.35;;;;;;;10.47;100.00;101230.63;4952790;28;20035;-81
2022/07/29 02:52:24;;;;;;;5.18;4.13;;;;;;;10.46;100.00;101239.47;4938946;28;20042;-81
2022/07/29 02:55:12;;;;;;;4.90;3.72;;;;;;;10.41;100.00;101246.53;4954561;28;20043;-82
2022/07/29 02:57:42;;;;;;;4.97;3.35;;;;;;;10.41;100.00;101239.50;4946273;28;20051;-82
2022/07/29 03:00:22;;;;;;;6.60;3.40;;;;;;;10.56;100.00;101249.03;4915771;28;20053;-81
2022/07/29 03:02:52;;;;;;;8.13;5.13;;;;;;;10.53;100.00;101249.06;4927881;29;20047;-81
2022/07/29 03:05:20;;;;;;;5.82;3.85;;;;;;;10.55;100.00;101251.69;4903101;28;20412;-81
2022/07/29 03:07:57;;;;;;;6.25;4.05;;;;;;;10.55;100.00;101249.06;4937959;29;20398;-81
2022/07/29 03:10:26;;;;;;;4.18;3.28;;;;;;;10.58;100.00;101243.72;4902547;28;20052;-82
2022/07/29 03:12:54;;;;;;;6.63;3.95;;;;;;;10.62;100.00;101256.03;4921249;29;20062;-83
2022/07/29 03:15:21;;;;;;;7.10;3.75;;;;;;;10.65;100.00;101248.91;4928152;28;20428;-82
2022/07/29 03:17:51;;;;;;;5.72;3.92;;;;;;;10.64;100.00;101248.94;4941380;28;20043;-82
2022/07/29 03:20:18;;;;;;;6.43;3.63;;;;;;;10.64;100.00;101248.94;4924832;28;20062;-83
2022/07/29 03:22:47;;;;;;;10.50;4.38;;;;;;;10.65;100.00;101248.91;4932596;29;20681;-82
2022/07/29 03:25:16;;;;;;;6.93;4.18;;;;;;;10.69;100.00;101253.28;4933177;28;20056;-82
2022/07/29 03:27:43;;;;;;;7.57;3.38;;;;;;;10.66;100.00;101245.38;4925766;29;20054;-82
2022/07/29 03:30:11;;;;;;;6.78;4.03;;;;;;;10.65;100.00;101250.69;4919348;29;20412;-82
2022/07/29 03:32:49;;;;;;;5.97;3.63;;;;;;;10.66;100.00;101245.38;4921970;28;20039;-82
2022/07/29 03:35:22;;;;;;;7.60;4.35;;;;;;;10.69;100.00;101244.50;4904662;28;20051;-83
2022/07/29 03:37:49;;;;;;;6.88;4.25;;;;;;;10.78;100.00;101241.75;4938560;29;20074;-82
2022/07/29 03:40:23;;;;;;;4.82;3.53;;;;;;;10.80;100.00;101241.72;4911878;28;20043;-82
2022/07/29 03:43:11;;;;;;;5.43;3.67;;;;;;;10.78;100.00;101233.81;4945480;28;20043;-82
2022/07/29 03:45:39;;;;;;;6.90;3.88;;;;;;;10.84;100.00;101233.72;4940374;28;20038;-82
2022/07/29 03:48:08;;;;;;;6.80;3.58;;;;;;;10.89;100.00;101229.25;4930206;29;20043;-82
2022/07/29 03:50:35;;;;;;;5.25;3.28;;;;;;;10.90;100.00;101235.41;4925361;29;20043;-83
2022/07/29 03:53:02;;;;;;;5.85;3.90;;;;;;;10.91;100.00;101232.75;4924038;28;20039;-82
2022/07/29 03:55:33;;;;;;;7.22;3.67;;;;;;;10.93;100.00;101233.63;4914861;28;20043;-82
2022/07/29 03:58:01;;;;;;;4.93;4.03;;;;;;;11.04;100.00;101235.25;4933302;28;20067;-82
2022/07/29 04:00:29;;;;;;;7.32;4.40;;;;;;;11.12;100.00;101233.38;4924340;28;20066;-82
2022/07/29 04:02:56;;;;;;;6.68;3.63;;;;;;;11.14;100.00;101234.22;4927696;29;20054;-81
2022/07/29 04:05:23;;;;;;;6.40;4.20;;;;;;;11.16;100.00;101229.78;4948479;28;20050;-82
2022/07/29 04:07:49;;;;;;;5.15;3.50;;;;;;;11.26;100.00;101231.41;4934909;29;20054;-82
2022/07/29 04:10:17;;;;;;;5.10;3.35;;;;;;;11.36;100.00;101230.38;4937463;28;20073;-82
2022/07/29 04:12:59;;;;;;;4.75;3.35;;;;;;;11.36;100.00;101229.53;4937024;29;20039;-82
2022/07/29 04:15:27;;;;;;;5.97;3.85;;;;;;;11.39;100.00;101229.47;4922996;28;20039;-82
2022/07/29 04:17:56;;;;;;;6.35;4.10;;;;;;;11.47;100.00;101219.63;4941142;28;20043;-82
2022/07/29 04:20:23;;;;;;;5.95;4.20;;;;;;;11.48;100.00;101221.38;4906083;29;20169;-81
2022/07/29 04:22:50;;;;;;;6.22;3.75;;;;;;;11.65;100.00;101218.47;4938417;29;20067;-82
2022/07/29 04:25:17;;;;;;;5.25;3.35;;;;;;;11.65;100.00;101216.69;4937857;28;20051;-81
2022/07/29 04:28:02;;;;;;;6.05;3.80;;;;;;;11.73;100.00;101216.56;4946026;28;20510;-80
2022/07/29 04:30:30;;;;;;;4.22;3.28;;;;;;;11.80;100.00;101211.19;4948478;28;20134;-81
2022/07/29 04:33:07;;;;;;;9.00;4.40;;;;;;;11.96;100.00;101218.88;4934369;29;20139;-81
2022/07/29 04:35:35;;;;;;;5.10;3.75;;;;;;;12.00;100.00;101220.56;4946802;23;20140;-94
2022/07/29 04:38:05;;;;;;;4.78;3.78;;;;;;;12.15;100.00;101220.31;5025311;28;20021;-94
2022/07/29 04:40:32;;;;;;;5.68;4.03;;;;;;;12.23;100.00;101217.50;5015400;28;20025;-94
2022/07/29 04:43:00;;;;;;;4.22;3.22;;;;;;;12.26;100.00;101220.97;5001818;28;20052;-93
2022/07/29 04:45:31;;;;;;;5.60;3.88;;;;;;;12.44;100.00;101217.09;5005924;28;20025;-95
2022/07/29 04:47:58;;;;;;;4.15;3.72;;;;;;;12.47;100.00;101224.13;5020583;28;20060;-94
2022/07/29 04:50:25;;;;;;;4.15;3.60;;;;;;;12.53;100.00;101226.69;5012341;28;20092;-94
2022/07/29 04:52:52;;;;;;;6.53;3.63;;;;;;;12.61;100.00;101222.06;5013259;28;20026;-92
2022/07/29 04:55:19;;;;;;;5.07;3.83;;;;;;;12.77;100.00;101230.59;5026089;28;20030;-93
2022/07/29 04:57:45;;;;;;;6.40;3.42;;;;;;;12.84;100.00;101233.09;5019847;28;20033;-95
2022/07/29 05:00:13;;;;;;;6.10;3.17;;;;;;;12.89;100.00;101231.22;4999940;28;20064;-94
2022/07/29 05:02:39;;;;;;;4.45;3.53;;;;;;;12.98;100.00;101235.47;5001543;28;20028;-94
2022/07/29 05:05:07;;;;;;;4.93;3.42;;;;;;;13.18;100.00;101230.59;5005506;28;20022;-93
2022/07/29 05:07:34;;;;;;;9.15;3.85;;;;;;;13.31;100.00;101233.00;5013968;28;20040;-94
2022/07/29 05:10:01;;;;;;;6.90;3.22;;;;;;;13.49;100.00;101240.56;5002599;28;20022;-94
2022/07/29 05:12:28;;;;;;;6.00;3.10;;;;;;;13.41;100.00;101232.75;5019552;28;20034;-93
2022/07/29 05:14:54;;;;;;;4.45;3.40;;;;;;;13.69;100.00;101240.06;4998512;28;20026;-94
2022/07/29 05:17:21;;;;;;;4.70;3.55;;;;;;;13.77;100.00;101238.09;5008553;28;20109;-92
2022/07/29 05:19:51;;;;;;;4.88;2.92;;;;;;;13.92;100.00;101232.41;5005151;28;20048;-93
2022/07/29 05:22:19;;;;;;;4.40;3.30;;;;;;;14.05;100.00;101233.88;4996649;28;20029;-94
2022/07/29 05:24:46;;;;;;;7.28;3.78;;;;;;;14.19;100.00;101235.28;5018941;28;20021;-91
2022/07/29 05:27:13;;;;;;;5.68;3.58;;;;;;;14.33;100.00;101230.47;5006960;28;20025;-94
2022/07/29 05:29:40;;;;;;;6.03;3.30;;;;;;;14.46;100.00;101223.06;5000133;28;20255;-92
2022/07/29 05:32:14;;;;;;;4.80;3.10;;;;;;;14.69;100.00;101222.41;5024130;28;20021;-93
2022/07/29 05:34:41;;;;;;;3.20;2.90;;;;;;;14.81;100.00;101225.63;5017518;28;20040;-93
2022/07/29 05:37:23;;;;;;;7.22;3.40;;;;;;;15.05;100.00;101225.78;5015892;28;20025;-93
2022/07/29 05:39:50;;;;;;;5.00;3.83;;;;;;;15.26;100.00;101216.28;5008980;28;20093;-92
2022/07/29 05:42:24;;;;;;;6.05;3.00;;;;;;;15.59;100.00;101204.56;5015189;28;20834;-91
2022/07/29 05:44:51;;;;;;;3.47;2.58;;;;;;;16.21;96.91;101209.59;5003214;28;20021;-93
2022/07/29 05:47:18;;;;;;;6.05;3.28;;;;;;;16.26;93.94;101210.31;5000510;28;20089;-93
2022/07/29 05:49:47;;;;;;;9.02;3.13;;;;;;;16.24;92.97;101211.31;5002938;28;20049;-93
2022/07/29 05:52:14;;;;;;;4.72;2.80;;;;;;;16.44;92.91;101206.13;4999188;28;20022;-93
2022/07/29 05:54:41;;;;;;;5.25;3.25;;;;;;;16.52;89.61;101205.84;5000064;28;20040;-92
2022/07/29 05:57:09;;;;;;;3.75;2.88;;;;;;;16.71;91.60;101211.41;5038101;28;20139;-93
2022/07/29 05:59:36;;;;;;;4.85;3.30;;;;;;;16.54;88.96;101202.19;5000293;28;20093;-92
2022/07/29 06:02:04;;;;;;;12.75;3.00;;;;;;;16.51;89.50;101201.44;4997806;28;20028;-92
2022/07/29 06:04:32;;;;;;;5.50;3.00;;;;;;;16.54;88.89;101204.00;4990111;28;20056;-92
2022/07/29 06:07:02;;;;;;;3.70;3.03;;;;;;;17.36;85.65;101200.88;5013274;28;20042;-94
2022/07/29 06:09:29;;;;;;;4.25;2.70;;;;;;;17.95;79.57;101202.91;4993475;28;20052;-93
2022/07/29 06:11:58;;;;;;;5.43;3.33;;;;;;;18.07;78.22;101201.50;4995776;28;20030;-93
2022/07/29 06:14:28;;;;;;;5.10;2.78;;;;;;;18.07;79.43;101214.88;5018064;28;20027;-94
2022/07/29 06:16:55;;;;;;;4.20;2.70;;;;;;;18.14;79.69;101204.78;5001228;28;20049;-93
2022/07/29 06:19:25;;;;;;;4.53;3.20;;;;;;;18.22;76.06;101208.00;5003913;28;20121;-93
2022/07/29 06:21:52;;;;;;;3.55;2.80;;;;;;;18.53;76.00;101200.38;4998563;28;20021;-93
2022/07/29 06:24:19;;;;;;;5.70;3.42;;;;;;;18.09;74.73;101206.81;5021677;28;20037;-93
2022/07/29 06:26:49;;;;;;;5.45;2.80;;;;;;;17.63;78.00;101198.88;5001243;28;20025;-94
2022/07/29 06:29:16;;;;;;;4.15;2.80;;;;;;;17.71;78.88;101203.94;5018317;28;20057;-95
2022/07/29 06:31:43;;;;;;;6.88;3.05;;;;;;;17.99;76.00;101203.63;5006969;28;20041;-92
2022/07/29 06:34:10;;;;;;;3.97;3.03;;;;;;;18.27;74.83;101206.88;5018413;28;20036;-93
2022/07/29 06:36:38;;;;;;;4.50;2.63;;;;;;;18.51;75.11;101212.09;5009417;28;20097;-94
2022/07/29 06:39:07;;;;;;;3.78;3.00;;;;;;;18.51;74.19;101204.94;5004605;28;20033;-93
2022/07/29 06:41:35;;;;;;;4.22;3.03;;;;;;;18.61;75.61;101207.19;5006786;28;20040;-94
2022/07/29 06:44:04;;;;;;;4.18;3.00;;;;;;;18.61;75.96;101204.50;5022176;28;20049;-92
2022/07/29 06:46:31;;;;;;;3.42;3.00;;;;;;;18.61;74.83;101207.19;5003167;28;20018;-93
2022/07/29 06:49:01;;;;;;;4.82;3.03;;;;;;;18.38;74.78;101213.56;5003502;28;20093;-93
2022/07/29 06:51:28;;;;;;;5.05;2.40;;;;;;;18.11;75.15;101204.94;5013570;28;20036;-93
2022/07/29 06:53:57;;;;;;;4.40;2.67;;;;;;;17.95;77.00;101204.72;5002841;28;20114;-94
2022/07/29 06:56:33;;;;;;;5.40;3.00;;;;;;;17.83;78.31;101208.78;5007248;28;20037;-94
2022/07/29 06:59:09;;;;;;;4.10;3.20;;;;;;;17.88;78.82;101208.56;5022934;28;20052;-93
2022/07/29 07:01:39;;;;;;;5.80;2.75;;;;;;;17.83;78.71;101207.91;5004083;28;20302;-92
2022/07/29 07:04:08;;;;;;;5.68;3.58;;;;;;;17.95;77.72;101218.94;5004316;28;20093;-93
2022/07/29 07:06:37;;;;;;;4.93;2.67;;;;;;;18.39;77.86;101218.84;5005307;28;20037;-93
2022/07/29 07:09:04;;;;;;;3.33;2.35;;;;;;;18.92;74.85;101220.94;5004998;28;20024;-93
2022/07/29 07:11:31;;;;;;;3.63;3.05;;;;;;;19.42;73.50;101214.97;5019922;28;20364;-92
2022/07/29 07:13:58;;;;;;;4.97;2.90;;;;;;;19.67;72.47;101212.00;4991997;28;20029;-93
2022/07/29 07:16:30;;;;;;;4.38;2.38;;;;;;;19.88;67.75;101213.63;5000594;28;20284;-94
2022/07/29 07:18:58;;;;;;;5.47;2.58;;;;;;;20.08;66.05;101217.97;5022072;28;20045;-93
2022/07/29 07:21:25;;;;;;;4.07;2.38;;;;;;;20.11;67.52;101219.66;4999875;28;20025;-92
2022/07/29 07:23:55;;;;;;;3.75;2.58;;;;;;;20.14;67.39;101211.44;5003862;28;20036;-94
2022/07/29 07:26:22;;;;;;;5.00;3.08;;;;;;;20.09;67.43;101214.34;4999712;28;20033;-93
2022/07/29 07:28:49;;;;;;;4.97;2.58;;;;;;;20.17;67.00;101212.13;5003097;28;20034;-93
2022/07/29 07:31:17;;;;;;;4.97;2.70;;;;;;;20.10;68.01;101216.09;4996289;28;20049;-93
2022/07/29 07:33:44;;;;;;;5.05;2.55;;;;;;;20.00;68.94;101217.50;5014658;28;20049;-93
2022/07/29 07:36:11;;;;;;;4.63;2.90;;;;;;;19.94;66.64;101212.47;5018649;28;20032;-93
2022/07/29 07:38:38;;;;;;;3.70;2.83;;;;;;;19.87;69.10;101216.41;5003778;28;20052;-92
2022/07/29 07:41:05;;;;;;;3.42;2.30;;;;;;;19.92;70.55;101219.69;5016344;28;20029;-93
2022/07/29 07:43:31;;;;;;;3.38;2.47;;;;;;;20.15;68.83;101216.72;5002481;28;20130;-92
2022/07/29 07:45:59;;;;;;;3.78;2.40;;;;;;;20.28;68.31;101213.41;5003742;28;20022;-93
2022/07/29 07:48:26;;;;;;;3.75;2.25;;;;;;;20.58;66.29;101205.59;5019775;28;20022;-93
2022/07/29 07:50:53;;;;;;;5.78;2.58;;;;;;;20.56;63.71;101204.81;5009040;28;20033;-92
2022/07/29 07:53:21;;;;;;;4.05;2.60;;;;;;;20.65;64.47;101204.31;5007229;28;20021;-94
2022/07/29 07:55:48;;;;;;;3.10;2.47;;;;;;;20.92;63.94;101202.81;5006275;28;20030;-94
2022/07/29 07:58:36;;;;;;;4.07;2.63;;;;;;;21.28;63.30;101204.44;5039296;28;20120;-93
2022/07/29 08:01:02;;;;;;;4.18;2.65;;;;;;;21.42;60.79;101204.50;5004839;28;20021;-93
2022/07/29 08:03:29;;;;;;;4.97;2.33;;;;;;;21.53;59.82;101203.91;5005458;28;20088;-95
2022/07/29 08:05:57;;;;;;;4.18;2.72;;;;;;;21.58;59.23;101202.69;5017901;28;20018;-94
2022/07/29 08:08:24;;;;;;;4.88;2.60;;;;;;;21.97;60.42;101204.00;5022535;28;20037;-94
2022/07/29 08:10:55;;;;;;;2.72;2.33;;;;;;;22.19;59.63;101204.47;5004900;28;20021;-95
2022/07/29 08:13:27;;;;;;;5.03;2.55;;;;;;;21.75;59.75;101207.06;5000831;28;20030;-95
2022/07/29 08:15:57;;;;;;;4.18;2.30;;;;;;;21.80;58.65;101199.63;5004777;28;20045;-94
2022/07/29 08:18:29;;;;;;;3.05;2.47;;;;;;;21.88;59.57;101205.41;5011473;28;20033;-95
2022/07/29 08:20:57;;;;;;;2.72;2.15;;;;;;;21.82;58.44;101204.91;5001416;28;20025;-94
2022/07/29 08:23:26;;;;;;;4.22;2.28;;;;;;;21.85;58.55;101200.19;5021568;28;20025;-95
2022/07/29 08:26:12;;;;;;;3.63;2.35;;;;;;;21.95;58.87;101200.53;5008949;28;20101;-94
2022/07/29 08:28:41;;;;;;;7.10;2.80;;;;;;;22.24;60.55;101204.19;5002464;28;20989;-94
2022/07/29 08:31:08;;;;;;;5.13;2.10;;;;;;;22.65;59.04;101198.97;5036564;28;20056;-93
2022/07/29 08:33:37;;;;;;;3.28;2.28;;;;;;;22.94;56.95;101205.25;5004133;28;20022;-94
2022/07/29 08:36:05;;;;;;;5.78;2.75;;;;;;;22.99;54.66;101195.03;5016022;28;20037;-96
2022/07/29 08:38:32;;;;;;;4.60;2.22;;;;;;;22.93;55.66;101205.34;5008767;28;20033;-95
2022/07/29 08:41:02;;;;;;;3.08;2.35;;;;;;;23.40;54.25;101191.50;5008877;28;20025;-95
2022/07/29 08:43:29;;;;;;;4.90;2.35;;;;;;;23.82;51.74;101189.66;5024668;28;20021;-95
2022/07/29 08:45:56;;;;;;;3.15;2.38;;;;;;;24.37;52.63;101189.44;5004685;28;20029;-95
2022/07/29 08:48:24;;;;;;;4.43;2.15;;;;;;;24.94;49.99;101194.38;5010541;28;20020;-95
2022/07/29 08:50:58;;;;;;;3.45;2.55;;;;;;;24.87;47.24;101189.53;5009370;28;20025;-93
2022/07/29 08:53:26;;;;;;;3.70;2.13;;;;;;;24.85;48.96;101181.53;5006472;28;20032;-94
2022/07/29 08:55:54;;;;;;;2.92;2.50;;;;;;;25.44;47.84;101189.00;5016630;28;20017;-94
2022/07/29 08:58:22;;;;;;;4.15;2.10;;;;;;;25.80;44.90;101182.69;5019056;28;20037;-94
2022/07/29 09:00:54;;;;;;;2.13;1.92;;;;;;;25.61;45.01;101185.03;5018430;28;20021;-94
2022/07/29 09:03:29;;;;;;;3.70;2.40;;;;;;;25.82;43.66;101186.16;5021137;28;20033;-94
2022/07/29 09:05:58;;;;;;;3.70;2.20;;;;;;;26.19;45.00;101194.16;5002363;28;20033;-94
2022/07/29 09:08:25;;;;;;;2.90;2.40;;;;;;;26.05;43.06;101187.06;5016764;28;20036;-93
2022/07/29 09:10:53;;;;;;;3.95;2.60;;;;;;;26.13;43.11;101181.06;5003240;28;20025;-93
2022/07/29 09:13:22;;;;;;;3.10;2.00;;;;;;;26.36;42.75;101178.28;5008348;28;20026;-95
2022/07/29 09:15:49;;;;;;;4.32;2.40;;;;;;;25.95;42.08;101177.94;5004965;28;20375;-94
2022/07/29 09:18:37;;;;;;;4.10;2.35;;;;;;;26.16;43.00;101178.16;5020102;28;20305;-94
2022/07/29 09:24:09;;;;;;;3.28;2.28;;;;;;;25.97;42.42;101165.13;5037267;28;20045;-94
2022/07/29 09:26:47;;;;;;;4.75;2.22;;;;;;;26.36;43.73;101161.19;5020358;28;20097;-94
2022/07/29 09:29:18;;;;;;;3.55;2.65;;;;;;;26.84;42.58;101159.16;5031717;28;20106;-95
2022/07/29 09:31:50;;;;;;;3.50;2.45;;;;;;;26.55;39.76;101163.31;5013090;28;20061;-94
2022/07/29 09:34:26;;;;;;;3.65;2.50;;;;;;;26.54;41.57;101159.75;5011591;28;20037;-95
2022/07/29 09:36:54;;;;;;;3.33;2.05;;;;;;;26.22;40.62;101166.81;5006728;28;20037;-94
2022/07/29 09:39:36;;;;;;;4.20;2.63;;;;;;;26.29;39.99;101163.50;5037424;28;20025;-94
2022/07/29 09:42:06;;;;;;;3.65;2.30;;;;;;;26.10;41.83;101168.63;5004912;28;20029;-94
2022/07/29 09:44:49;;;;;;;3.08;2.40;;;;;;;25.75;41.09;101164.09;5018396;28;20022;-94
2022/07/29 09:47:18;;;;;;;3.35;2.17;;;;;;;26.20;42.01;101153.41;5035008;28;20029;-94
2022/07/29 09:49:59;;;;;;;3.42;2.15;;;;;;;26.49;42.44;101150.28;5024291;28;20096;-94
2022/07/29 09:52:27;;;;;;;5.63;2.28;;;;;;;26.91;40.26;101154.97;5019858;28;20035;-94
2022/07/29 09:55:08;;;;;;;4.00;2.03;;;;;;;27.00;39.38;101149.78;5006347;28;20025;-93
2022/07/29 09:57:39;;;;;;;6.03;2.40;;;;;;;27.13;37.34;101156.78;5040109;28;20029;-94
2022/07/29 10:00:09;;;;;;;4.63;2.20;;;;;;;27.24;38.55;101146.91;5009275;28;20032;-95
2022/07/29 10:02:38;;;;;;;3.30;2.20;;;;;;;27.74;36.29;101145.41;5008798;28;20049;-95
2022/07/29 10:05:16;;;;;;;4.20;2.30;;;;;;;28.37;36.23;101148.19;5009330;28;20049;-94
2022/07/29 10:07:45;;;;;;;4.25;2.30;;;;;;;27.64;35.84;101136.28;5018462;28;20025;-94
2022/07/29 10:10:26;;;;;;;4.78;2.67;;;;;;;27.96;36.24;101142.59;5019993;28;20060;-93
2022/07/29 10:13:01;;;;;;;4.75;2.20;;;;;;;27.99;35.82;101139.59;4993166;28;20036;-94
2022/07/29 10:15:40;;;;;;;2.30;2.00;;;;;;;27.44;36.10;101135.28;4998842;28;20032;-94
2022/07/29 10:18:11;;;;;;;3.80;1.80;;;;;;;27.73;35.54;101141.84;5014810;28;20053;-95
2022/07/29 10:20:39;;;;;;;3.78;2.20;;;;;;;28.05;34.13;101136.34;5018472;28;20021;-96
2022/07/29 10:23:06;;;;;;;5.22;2.42;;;;;;;27.74;35.23;101148.13;5003501;28;20049;-95
2022/07/29 10:25:33;;;;;;;3.70;1.92;;;;;;;26.87;34.87;101139.91;5030146;28;20108;-94
2022/07/29 10:28:00;;;;;;;4.13;2.00;;;;;;;26.83;34.63;101137.59;5009606;28;20030;-94
2022/07/29 10:30:27;;;;;;;4.38;2.00;;;;;;;26.68;34.17;101131.56;5000747;28;20049;-94
2022/07/29 10:33:19;;;;;;;3.47;2.20;;;;;;;26.62;34.59;101142.88;5006930;28;20070;-94
2022/07/29 10:36:11;;;;;;;3.75;2.33;;;;;;;26.12;32.97;101144.13;5003901;28;20025;-94
2022/07/29 10:38:51;;;;;;;3.85;2.08;;;;;;;26.05;34.87;101128.38;5003346;28;20037;-93
2022/07/29 10:41:46;;;;;;;3.72;2.25;;;;;;;26.24;35.60;101126.94;5002260;28;20046;-94
2022/07/29 10:44:19;;;;;;;4.30;2.30;;;;;;;26.41;33.93;101123.78;5022318;28;20021;-94
2022/07/29 10:46:50;;;;;;;4.43;2.20;;;;;;;26.84;35.04;101126.63;5034267;28;20042;-94
2022/07/29 10:49:24;;;;;;;3.70;1.80;;;;;;;27.15;36.33;101114.13;5015746;28;20026;-95
2022/07/29 10:52:01;;;;;;;3.17;1.98;;;;;;;27.32;33.55;101120.84;5019301;28;20026;-94
2022/07/29 10:54:34;;;;;;;2.45;1.90;;;;;;;27.14;33.62;101133.25;5006768;28;20026;-95
2022/07/29 10:57:14;;;;;;;2.95;2.30;;;;;;;26.90;33.12;101119.81;5021302;28;20049;-94
2022/07/29 10:59:44;;;;;;;2.47;1.90;;;;;;;26.71;33.10;101117.75;5017503;28;20022;-94
2022/07/29 11:02:33;;;;;;;5.55;2.28;;;;;;;26.76;31.45;101120.97;5012448;28;20051;-93
2022/07/29 11:05:14;;;;;;;3.72;2.00;;;;;;;26.75;31.82;101113.81;5016664;28;20147;-94
2022/07/29 11:08:12;;;;;;;2.80;1.52;;;;;;;27.56;31.40;101111.66;5010652;28;20031;-94
2022/07/29 11:10:53;;;;;;;4.43;2.10;;;;;;;27.59;30.81;101108.69;5031927;28;20055;-95
2022/07/29 11:13:46;;;;;;;3.03;1.80;;;;;;;27.38;32.34;101117.63;5000474;28;20030;-95
2022/07/29 11:16:16;;;;;;;8.23;2.20;;;;;;;26.93;31.44;101114.16;5005261;28;20174;-94
2022/07/29 11:19:10;;;;;;;2.05;1.65;;;;;;;27.26;31.05;101107.81;5005807;28;20034;-93
2022/07/29 11:21:46;;;;;;;2.50;1.80;;;;;;;27.55;31.26;101099.94;5027328;28;20040;-94
2022/07/29 11:24:23;;;;;;;2.00;1.70;;;;;;;28.00;28.76;101108.75;5022760;28;20021;-94
2022/07/29 11:27:22;;;;;;;2.75;2.08;;;;;;;27.74;29.43;101104.69;5009629;28;20068;-94
2022/07/29 11:30:01;;;;;;;2.95;1.60;;;;;;;27.85;31.08;101106.50;5005988;28;20026;-95
2022/07/29 11:32:41;;;;;;;4.70;1.90;;;;;;;28.04;29.21;101093.91;5010329;28;20026;-94
2022/07/29 11:35:20;;;;;;;2.88;1.98;;;;;;;27.65;29.20;101100.00;5009928;28;20029;-94
2022/07/29 11:38:27;;;;;;;2.92;1.92;;;;;;;27.47;30.09;101097.00;5023258;28;20021;-94
2022/07/29 11:41:17;;;;;;;2.03;1.70;;;;;;;27.14;29.15;101098.84;5005118;28;20033;-95
2022/07/29 11:43:53;;;;;;;2.72;1.75;;;;;;;27.11;30.77;101092.81;5025968;28;20044;-93
2022/07/29 11:46:38;;;;;;;;;;;;;;;27.20;30.07;101094.75;5020853;28;20094;-94
2022/07/29 11:49:08;;;;;;;3.03;1.92;;;;;;;27.33;29.85;101097.34;5021832;28;19960;-94
2022/07/29 11:51:42;;;;;;;2.50;1.75;;;;;;;27.61;29.44;101098.56;5017515;28;20041;-94